Time;durP1;ratioP1;P1;durP2;ratioP2;P2;SDS_P1;SDS_P2;PMS_P1;PMS_P2;Temp;Humidity;BMP_temperature;BMP_pressure;BME280_temperature;BME280_humidity;BME280_pressure;Samples;Min_cycle;Max_cycle;Signal;HPM_P1;HPM_P2
2022/01/23 00:00:51;;;;;;;12.80;6.40;;;;;;;-4.19;83.13;97019.25;5052063;28;20425;-35
2022/01/23 00:03:19;;;;;;;18.63;6.80;;;;;;;-4.23;82.98;97021.28;5051991;28;20819;-37
2022/01/23 00:05:48;;;;;;;13.93;6.23;;;;;;;-4.23;82.84;97023.88;5051920;28;20471;-35
2022/01/23 00:08:20;;;;;;;19.50;6.70;;;;;;;-4.25;82.48;97027.56;5051907;28;20529;-33
2022/01/23 00:10:51;;;;;;;18.07;7.30;;;;;;;-4.25;82.31;97019.81;5052059;28;20437;-33
2022/01/23 00:13:26;;;;;;;24.40;8.30;;;;;;;-4.27;82.20;97032.88;5051700;28;20453;-34
2022/01/23 00:18:39;;;;;;;11.37;5.97;;;;;;;-4.29;81.93;97029.63;5051901;28;20908;-34
2022/01/23 00:21:06;;;;;;;22.23;7.27;;;;;;;-4.28;82.04;97031.28;5051662;28;20441;-33
2022/01/23 00:30:19;;;;;;;11.23;5.30;;;;;;;-4.28;81.18;97028.69;5051754;28;20888;-35
2022/01/23 00:31:51;;;;;;;18.90;9.43;;;;;;;-4.26;81.42;97047.47;5114278;28;21042;-33
2022/01/23 00:34:19;;;;;;;11.70;6.47;;;;;;;-4.53;81.16;97011.91;5113983;28;20482;-34
2022/01/23 00:36:47;;;;;;;13.40;6.40;;;;;;;-4.33;81.71;97054.19;5114087;28;20446;-33
2022/01/23 00:39:15;;;;;;;11.93;5.57;;;;;;;-4.33;81.40;97055.00;5114040;28;20944;-36
2022/01/23 00:41:42;;;;;;;9.57;3.77;;;;;;;-4.37;81.81;97042.44;5114217;28;20929;-33
2022/01/23 00:44:10;;;;;;;17.80;5.73;;;;;;;-4.35;81.93;97051.72;5114190;28;20864;-34
2022/01/23 00:46:39;;;;;;;28.13;13.53;;;;;;;-4.34;81.92;97042.19;5113309;28;20446;-33
2022/01/23 00:52:00;;;;;;;20.67;8.37;;;;;;;-4.36;82.25;97054.47;5051338;28;20432;-35
2022/01/23 00:54:28;;;;;;;5.77;3.80;;;;;;;-4.41;81.93;97046.25;5051080;28;20491;-33
2022/01/23 00:56:55;;;;;;;6.73;4.00;;;;;;;-4.55;82.17;97030.16;5051194;28;20451;-34
2022/01/23 00:59:23;;;;;;;10.60;4.73;;;;;;;-4.46;82.22;97062.22;5051187;28;20448;-34
2022/01/23 01:01:50;;;;;;;6.00;4.63;;;;;;;-4.47;82.05;97064.94;5051247;28;20433;-33
2022/01/23 01:04:17;;;;;;;6.73;3.17;;;;;;;-4.49;82.19;97061.69;5051125;28;20437;-34
2022/01/23 01:06:45;;;;;;;15.47;4.47;;;;;;;-4.50;82.70;97063.44;5051064;28;20451;-33
2022/01/23 01:09:14;;;;;;;9.63;4.40;;;;;;;-4.47;81.92;97063.19;5051213;28;20925;-34
2022/01/23 01:11:57;;;;;;;10.30;3.87;;;;;;;-4.47;82.31;97062.34;5051046;28;20451;-33
2022/01/23 01:17:16;;;;;;;7.03;4.57;;;;;;;-4.41;81.91;97056.63;5050217;28;20803;-35
2022/01/23 01:31:01;;;;;;;6.47;5.00;;;;;;;-4.37;81.59;97058.00;5113949;28;20483;-34
2022/01/23 01:33:39;;;;;;;7.20;4.47;;;;;;;-4.33;81.80;97056.78;5113519;28;20435;-33
2022/01/23 01:36:19;;;;;;;5.93;3.30;;;;;;;-4.55;81.38;97040.53;5113676;28;20477;-35
2022/01/23 01:38:47;;;;;;;4.80;3.40;;;;;;;-4.32;81.41;97059.22;5113798;28;20513;-34
2022/01/23 01:41:15;;;;;;;16.60;4.97;;;;;;;-4.46;81.10;97035.50;5113470;28;20438;-33
2022/01/23 01:43:43;;;;;;;6.13;4.37;;;;;;;-4.31;80.73;97062.63;5113399;28;20446;-36
2022/01/23 01:46:11;;;;;;;5.40;4.50;;;;;;;-4.31;80.87;97057.44;5113640;28;20974;-36
2022/01/23 01:48:39;;;;;;;12.67;6.50;;;;;;;-4.30;80.99;97059.09;5113331;28;20474;-33
2022/01/23 01:51:11;;;;;;;30.90;10.57;;;;;;;-4.33;80.74;97060.16;5113386;28;20456;-36
2022/01/23 01:53:38;;;;;;;18.23;8.83;;;;;;;-4.35;81.13;97059.50;5113384;28;20431;-36
2022/01/23 01:56:08;;;;;;;14.70;7.20;;;;;;;-4.39;80.48;97059.91;5113621;28;20976;-33
2022/01/23 02:09:39;;;;;;;7.37;4.00;;;;;;;-4.44;80.91;97062.09;5034356;28;20871;-36
2022/01/23 02:12:27;;;;;;;5.13;3.73;;;;;;;-4.44;80.89;97059.50;5034261;28;20953;-35
2022/01/23 02:15:14;;;;;;;9.43;4.57;;;;;;;-4.43;80.84;97061.13;5034176;28;20508;-35
2022/01/23 02:17:58;;;;;;;5.33;4.07;;;;;;;-4.47;80.74;97070.13;5034366;28;20434;-36
2022/01/23 02:23:29;;;;;;;10.37;4.70;;;;;;;-4.54;81.02;97057.72;5034440;28;20417;-35
2022/01/23 02:50:48;;;;;;;6.87;4.50;;;;;;;-4.70;82.28;97090.31;5116296;28;20491;-34
2022/01/23 02:53:36;;;;;;;8.90;4.87;;;;;;;-4.68;82.34;97086.63;5116021;28;20483;-34
2022/01/23 02:56:18;;;;;;;12.73;3.37;;;;;;;-4.69;82.44;97095.31;5115933;28;20480;-34
2022/01/23 02:58:56;;;;;;;9.43;4.00;;;;;;;-4.69;82.66;97100.50;5115922;28;20911;-33
2022/01/23 03:01:28;;;;;;;4.77;3.17;;;;;;;-4.72;83.16;97105.97;5116744;28;20427;-34
2022/01/23 03:04:01;;;;;;;6.93;3.47;;;;;;;-4.69;83.26;97097.91;5116146;28;20778;-33
2022/01/23 03:06:52;;;;;;;8.73;3.93;;;;;;;-4.70;83.15;97091.13;5116079;28;20458;-36
2022/01/23 03:14:54;;;;;;;7.23;3.77;;;;;;;-4.68;84.07;97096.16;5115321;28;20442;-35
2022/01/23 03:26:08;;;;;;;13.13;6.50;;;;;;;-4.71;84.71;97092.06;5115572;28;20447;-35
2022/01/23 03:28:39;;;;;;;11.87;7.03;;;;;;;-4.71;85.09;97106.78;5115358;28;20958;-37
2022/01/23 03:31:20;;;;;;;11.60;4.27;;;;;;;-4.74;84.82;97097.50;5115282;28;20430;-34
2022/01/23 03:33:47;;;;;;;4.50;2.80;;;;;;;-4.71;84.98;97097.25;5115586;28;20434;-34
2022/01/23 03:36:15;;;;;;;5.90;4.00;;;;;;;-4.79;85.30;97079.78;5115076;28;20496;-35
2022/01/23 03:38:42;;;;;;;36.03;17.67;;;;;;;-4.68;84.97;97096.16;5115437;28;20446;-34
2022/01/23 03:41:11;;;;;;;11.77;6.87;;;;;;;-4.87;85.00;97069.25;5115389;28;20460;-37
2022/01/23 03:43:40;;;;;;;16.93;5.17;;;;;;;-4.64;85.02;97100.94;5114995;28;20442;-34
2022/01/23 03:46:22;;;;;;;8.63;5.40;;;;;;;-4.62;84.70;97099.03;5114962;28;20442;-38
2022/01/23 03:51:37;;;;;;;12.13;5.93;;;;;;;-4.55;84.99;97107.91;5114987;28;20547;-35
2022/01/23 03:54:04;;;;;;;18.77;8.43;;;;;;;-4.51;84.47;97102.47;5114865;28;20450;-35
2022/01/23 03:56:33;;;;;;;10.40;4.90;;;;;;;-4.49;84.52;97103.16;5114673;28;20496;-35
2022/01/23 03:59:00;;;;;;;11.83;4.10;;;;;;;-4.49;84.33;97110.94;5114723;28;20438;-34
2022/01/23 04:01:28;;;;;;;7.93;4.20;;;;;;;-4.47;84.54;97109.00;5114960;28;20439;-35
2022/01/23 04:04:00;;;;;;;22.33;4.67;;;;;;;-4.44;84.63;97103.56;5114620;28;20446;-38
2022/01/23 04:06:27;;;;;;;9.60;5.67;;;;;;;-4.41;84.22;97104.13;5114661;28;20522;-37
2022/01/23 04:08:54;;;;;;;29.63;11.70;;;;;;;-4.44;84.05;97103.56;5114586;28;20475;-36
2022/01/23 04:11:22;;;;;;;11.70;5.90;;;;;;;-4.51;84.34;97092.13;5114494;28;20949;-36
2022/01/23 04:13:57;;;;;;;12.10;5.43;;;;;;;-4.46;84.42;97105.47;5114376;28;20446;-37
2022/01/23 04:16:48;;;;;;;10.30;5.73;;;;;;;-4.46;84.47;97115.84;5114421;28;20477;-37
2022/01/23 04:45:10;;;;;;;36.07;20.07;;;;;;;-4.57;84.01;97114.19;5114200;28;20504;-37
2022/01/23 05:00:35;;;;;;;7.60;5.20;;;;;;;-4.59;84.62;97127.28;5113942;28;20456;-37
2022/01/23 05:06:01;;;;;;;10.77;5.20;;;;;;;-4.63;84.69;97132.84;5077181;28;20422;-37
2022/01/23 05:08:32;;;;;;;12.77;5.23;;;;;;;-4.63;84.39;97138.84;5114591;28;20430;-37
2022/01/23 05:11:00;;;;;;;9.53;5.47;;;;;;;-4.64;84.59;97145.00;5114034;28;20491;-36
2022/01/23 05:13:29;;;;;;;21.97;6.10;;;;;;;-4.64;84.72;97165.72;5113994;28;20439;-36
2022/01/23 05:15:56;;;;;;;9.70;4.90;;;;;;;-4.67;84.90;97155.63;5113546;28;20855;-36
2022/01/23 05:18:25;;;;;;;27.93;10.90;;;;;;;-4.68;84.41;97166.94;5113651;28;20956;-36
2022/01/23 05:21:01;;;;;;;11.10;5.40;;;;;;;-4.72;84.48;97162.97;5113878;28;20487;-35
2022/01/23 05:23:29;;;;;;;23.97;9.60;;;;;;;-4.77;84.72;97171.16;5113957;28;20422;-35
2022/01/23 05:25:56;;;;;;;13.07;6.87;;;;;;;-4.77;84.55;97176.31;5113565;28;20446;-36
2022/01/23 05:28:24;;;;;;;30.37;11.77;;;;;;;-4.75;85.06;97158.06;5113896;28;20467;-36
2022/01/23 05:30:51;;;;;;;13.00;6.80;;;;;;;-4.71;84.41;97175.00;5113510;28;20448;-36
2022/01/23 05:33:18;;;;;;;12.07;7.80;;;;;;;-4.68;84.58;97179.09;5115539;28;20442;-37
2022/01/23 05:35:47;;;;;;;21.57;8.73;;;;;;;-4.74;84.48;97164.88;5117455;28;20481;-35
2022/01/23 05:38:14;;;;;;;18.63;7.97;;;;;;;-4.76;84.53;97167.59;5117467;28;20448;-37
2022/01/23 05:40:43;;;;;;;18.10;10.83;;;;;;;-4.77;84.94;97178.09;5117156;28;20917;-36
2022/01/23 05:43:10;;;;;;;10.33;5.70;;;;;;;-4.70;84.93;97168.03;5117269;28;20446;-37
2022/01/23 05:45:41;;;;;;;24.17;11.70;;;;;;;-4.81;85.37;97174.13;5117271;28;20963;-36
2022/01/23 05:48:09;;;;;;;11.07;7.07;;;;;;;-4.91;85.02;97152.53;5117026;28;20473;-37
2022/01/23 05:50:36;;;;;;;9.27;6.47;;;;;;;-4.67;84.90;97180.72;5117210;28;20434;-36
2022/01/23 05:53:05;;;;;;;12.17;7.43;;;;;;;-4.67;84.69;97184.13;5117163;28;20441;-36
2022/01/23 05:55:32;;;;;;;5.53;4.97;;;;;;;-4.59;84.58;97186.88;5117279;28;20845;-36
2022/01/23 05:58:00;;;;;;;9.17;6.30;;;;;;;-4.55;84.09;97184.84;5117019;28;20453;-35
2022/01/23 06:00:27;;;;;;;14.83;6.60;;;;;;;-4.51;83.98;97191.41;5117070;28;20445;-35
2022/01/23 06:02:54;;;;;;;16.33;7.33;;;;;;;-4.69;84.10;97157.50;5117223;28;20452;-35
2022/01/23 06:05:22;;;;;;;11.70;8.70;;;;;;;-4.45;84.22;97200.41;5116912;28;20453;-34
2022/01/23 06:07:50;;;;;;;14.47;8.07;;;;;;;-4.43;83.64;97203.69;5117088;28;20442;-37
2022/01/23 06:10:23;;;;;;;25.80;12.90;;;;;;;-4.42;83.96;97200.16;5116828;28;20437;-35
2022/01/23 06:12:51;;;;;;;25.87;9.00;;;;;;;-4.36;84.28;97210.00;5116980;28;20431;-37
2022/01/23 06:15:19;;;;;;;28.03;11.17;;;;;;;-4.30;83.50;97199.13;5116971;28;20442;-37
2022/01/23 06:17:47;;;;;;;36.37;16.10;;;;;;;-4.29;83.49;97205.94;5116502;28;20946;-34
2022/01/23 06:20:15;;;;;;;39.00;19.03;;;;;;;-4.28;83.52;97197.22;5116695;28;20442;-35
2022/01/23 06:22:45;;;;;;;16.80;10.20;;;;;;;-4.25;83.23;97206.50;5116843;28;20437;-34
2022/01/23 06:25:14;;;;;;;23.43;11.57;;;;;;;-4.26;82.86;97200.47;5116969;28;20796;-35
2022/01/23 06:27:43;;;;;;;16.10;7.37;;;;;;;-4.22;83.09;97196.66;5116517;28;20454;-37
2022/01/23 06:30:11;;;;;;;10.80;7.00;;;;;;;-4.15;82.70;97197.78;5116486;28;20442;-38
2022/01/23 06:32:39;;;;;;;13.93;7.70;;;;;;;-4.09;82.63;97208.56;5116375;28;20453;-37
2022/01/23 06:35:07;;;;;;;17.27;7.83;;;;;;;-4.08;82.25;97205.03;5116563;28;20449;-38
2022/01/23 06:37:34;;;;;;;22.67;9.50;;;;;;;-4.04;82.20;97209.81;5116129;28;20992;-37
2022/01/23 06:40:02;;;;;;;16.70;9.33;;;;;;;-4.02;81.98;97207.91;5116366;28;20454;-37
2022/01/23 06:42:29;;;;;;;22.03;9.60;;;;;;;-4.03;81.54;97200.25;5116570;28;20441;-37
2022/01/23 06:44:58;;;;;;;22.30;8.53;;;;;;;-3.96;81.73;97206.53;5116083;28;20446;-38
2022/01/23 06:47:25;;;;;;;14.43;7.80;;;;;;;-3.92;81.90;97197.50;5116418;28;20446;-37
2022/01/23 06:49:52;;;;;;;31.10;11.23;;;;;;;-3.87;81.65;97199.69;5115994;28;20813;-37
2022/01/23 06:52:20;;;;;;;16.20;10.57;;;;;;;-3.80;81.13;97200.81;5116389;28;20811;-37
2022/01/23 06:54:47;;;;;;;23.93;9.80;;;;;;;-3.75;81.10;97206.41;5115991;28;20446;-37
2022/01/23 06:57:15;;;;;;;18.27;9.30;;;;;;;-3.84;80.35;97187.28;5116207;28;20499;-37
2022/01/23 06:59:42;;;;;;;26.97;12.40;;;;;;;-3.72;80.64;97188.78;5116210;28;20446;-37
2022/01/23 07:02:11;;;;;;;40.20;15.77;;;;;;;-3.65;80.47;97198.63;5116183;28;20442;-37
2022/01/23 07:04:38;;;;;;;38.37;15.20;;;;;;;-3.63;80.23;97201.91;5116046;28;20442;-38
2022/01/23 07:07:06;;;;;;;36.00;14.50;;;;;;;-3.57;79.98;97201.34;5115838;28;20438;-38
2022/01/23 07:09:33;;;;;;;32.60;13.87;;;;;;;-3.49;79.86;97198.88;5115908;28;20438;-34
2022/01/23 07:12:00;;;;;;;40.33;14.40;;;;;;;-3.47;79.55;97211.72;5115620;28;20450;-35
2022/01/23 07:14:27;;;;;;;9.07;6.57;;;;;;;-3.49;79.09;97206.66;5115550;28;20971;-34
2022/01/23 07:16:55;;;;;;;15.80;7.93;;;;;;;-3.42;79.26;97218.16;5115748;28;20849;-34
2022/01/23 07:19:23;;;;;;;21.60;9.70;;;;;;;-3.40;79.20;97216.25;5115799;28;20465;-34
2022/01/23 07:21:51;;;;;;;16.90;9.97;;;;;;;-3.32;78.85;97215.53;5115413;28;20430;-34
2022/01/23 07:24:19;;;;;;;11.47;7.10;;;;;;;-3.24;78.34;97217.44;5115661;28;20449;-34
2022/01/23 07:26:46;;;;;;;14.30;8.27;;;;;;;-3.17;78.33;97214.13;5115580;28;20446;-35
2022/01/23 07:29:15;;;;;;;16.60;8.47;;;;;;;-3.12;77.98;97208.50;5115313;28;20538;-34
2022/01/23 07:31:57;;;;;;;7.87;5.90;;;;;;;-3.04;78.13;97219.03;5115222;28;20525;-37
2022/01/23 07:34:27;;;;;;;9.57;6.17;;;;;;;-3.07;77.34;97221.94;5115520;28;20777;-34
2022/01/23 07:36:56;;;;;;;12.10;6.90;;;;;;;-3.07;77.63;97229.72;5115112;28;20485;-35
2022/01/23 07:39:23;;;;;;;11.60;8.10;;;;;;;-3.01;77.57;97221.38;5115403;28;20446;-34
2022/01/23 07:41:50;;;;;;;14.97;6.40;;;;;;;-2.94;76.95;97226.81;5115371;28;20443;-34
2022/01/23 07:44:17;;;;;;;15.93;7.53;;;;;;;-2.88;77.61;97211.47;5115313;28;20450;-35
2022/01/23 07:46:45;;;;;;;17.17;9.07;;;;;;;-3.03;77.07;97184.31;5115276;28;20446;-34
2022/01/23 07:49:12;;;;;;;7.10;6.40;;;;;;;-2.83;76.70;97207.63;5114657;28;20969;-35
2022/01/23 07:51:41;;;;;;;14.90;7.40;;;;;;;-2.82;76.98;97210.06;5115133;28;20446;-35
2022/01/23 07:54:08;;;;;;;10.67;7.13;;;;;;;-2.74;76.77;97204.19;5114758;28;20921;-34
2022/01/23 07:56:37;;;;;;;17.90;7.23;;;;;;;-2.70;76.11;97214.16;5114505;28;20852;-34
2022/01/23 07:59:04;;;;;;;19.33;7.67;;;;;;;-2.65;76.16;97208.50;5114754;28;20528;-37
2022/01/23 08:01:32;;;;;;;7.80;5.03;;;;;;;-2.62;75.57;97208.25;5114955;28;20442;-35
2022/01/23 08:03:59;;;;;;;31.33;15.20;;;;;;;-2.60;75.85;97201.13;5114672;28;20937;-36
2022/01/23 08:06:32;;;;;;;8.07;5.60;;;;;;;-2.62;75.55;97207.44;5114795;28;20446;-36
2022/01/23 08:09:00;;;;;;;11.40;5.70;;;;;;;-2.56;75.72;97217.22;5114831;28;20437;-38
2022/01/23 08:11:28;;;;;;;10.70;5.67;;;;;;;-2.61;75.38;97209.88;5114419;28;20442;-37
2022/01/23 08:13:55;;;;;;;11.30;5.90;;;;;;;-2.65;74.89;97212.91;5114423;28;20449;-37
2022/01/23 08:16:22;;;;;;;23.90;8.33;;;;;;;-2.64;74.97;97215.38;5114308;28;20485;-37
2022/01/23 08:18:49;;;;;;;14.60;7.50;;;;;;;-2.57;75.31;97216.41;5114615;28;20442;-35
2022/01/23 08:21:16;;;;;;;21.70;8.60;;;;;;;-2.53;75.39;97217.78;5114595;28;20461;-37
2022/01/23 08:23:44;;;;;;;21.63;6.37;;;;;;;-2.55;74.65;97211.09;5114578;28;20445;-35
2022/01/23 08:26:12;;;;;;;6.60;4.40;;;;;;;-2.59;74.07;97218.34;5114216;28;20438;-35
2022/01/23 08:28:40;;;;;;;11.37;7.10;;;;;;;-2.61;74.69;97215.06;5114472;28;20475;-37
2022/01/23 08:31:07;;;;;;;18.70;7.27;;;;;;;-2.60;74.30;97221.91;5114369;28;20449;-37
2022/01/23 08:33:34;;;;;;;14.10;6.73;;;;;;;-2.55;75.01;97222.28;5114344;28;20442;-36
2022/01/23 08:36:01;;;;;;;16.27;9.67;;;;;;;-2.48;75.23;97222.53;5113957;28;20804;-36
2022/01/23 08:38:29;;;;;;;40.77;11.87;;;;;;;-2.40;74.72;97232.25;5113993;28;20963;-38
2022/01/23 08:43:44;;;;;;;23.80;10.90;;;;;;;-2.44;73.67;97210.06;5079585;28;20509;-36
2022/01/23 08:46:11;;;;;;;13.37;8.73;;;;;;;-2.38;74.33;97209.50;5113864;28;20454;-35
2022/01/23 08:48:40;;;;;;;17.13;10.27;;;;;;;-2.35;74.29;97198.81;5113678;28;20569;-35
2022/01/23 08:51:07;;;;;;;16.37;8.10;;;;;;;-2.27;73.71;97219.72;5114129;28;20442;-37
2022/01/23 08:53:35;;;;;;;14.50;8.03;;;;;;;-2.24;73.79;97216.00;5113880;28;20452;-36
2022/01/23 08:56:02;;;;;;;26.03;8.73;;;;;;;-2.27;73.20;97211.91;5114158;28;20792;-35
2022/01/23 08:58:30;;;;;;;21.90;10.30;;;;;;;-2.25;73.73;97209.97;5113125;28;20457;-35
2022/01/23 09:00:58;;;;;;;9.17;6.00;;;;;;;-2.20;73.23;97212.94;5113752;28;20442;-39
2022/01/23 09:03:25;;;;;;;13.63;9.10;;;;;;;-2.19;72.55;97206.81;5113686;28;20450;-36
2022/01/23 09:05:53;;;;;;;16.10;8.03;;;;;;;-2.16;72.85;97219.50;5113730;28;20448;-36
2022/01/23 09:08:21;;;;;;;25.97;11.30;;;;;;;-2.32;72.53;97199.34;5115560;28;20944;-35
2022/01/23 09:10:56;;;;;;;29.27;12.73;;;;;;;-2.20;72.77;97193.94;5117929;28;20956;-35
2022/01/23 09:13:39;;;;;;;14.53;8.07;;;;;;;-2.14;73.31;97212.38;5117891;28;20430;-37
2022/01/23 09:16:11;;;;;;;11.40;7.80;;;;;;;-2.23;73.20;97195.03;5117918;28;20491;-39
2022/01/23 09:18:38;;;;;;;12.63;6.10;;;;;;;-2.28;73.20;97185.09;5117751;28;20434;-37
2022/01/23 09:21:05;;;;;;;8.63;6.40;;;;;;;-2.14;73.24;97207.16;5117787;28;20943;-36
2022/01/23 09:23:33;;;;;;;31.43;11.17;;;;;;;-2.09;73.58;97201.53;5118056;28;20790;-38
2022/01/23 09:26:08;;;;;;;25.77;13.97;;;;;;;-2.12;73.33;97194.84;5118010;28;20759;-36
2022/01/23 09:28:36;;;;;;;33.30;13.00;;;;;;;-2.16;73.44;97193.47;5117899;28;20430;-38
2022/01/23 09:31:04;;;;;;;21.87;12.80;;;;;;;-2.20;73.78;97181.72;5117619;28;20450;-36
2022/01/23 09:33:35;;;;;;;19.43;10.67;;;;;;;-2.17;74.26;97186.66;5117907;28;20845;-38
2022/01/23 09:36:02;;;;;;;12.63;7.30;;;;;;;-2.09;73.62;97178.09;5117514;28;20772;-35
2022/01/23 09:38:29;;;;;;;17.10;10.50;;;;;;;-2.12;73.26;97179.22;5117696;28;20485;-35
2022/01/23 09:40:59;;;;;;;16.90;10.53;;;;;;;-2.07;72.66;97166.56;5117339;28;20446;-37
2022/01/23 09:43:28;;;;;;;10.33;6.27;;;;;;;-2.09;72.92;97168.53;5117385;28;20811;-36
2022/01/23 09:45:56;;;;;;;13.50;8.10;;;;;;;-2.02;73.41;97173.13;5117332;28;20452;-36
2022/01/23 09:48:24;;;;;;;11.50;6.03;;;;;;;-1.97;72.39;97166.53;5116982;28;20470;-36
2022/01/23 09:50:53;;;;;;;57.90;27.73;;;;;;;-1.93;72.74;97161.84;5117161;28;20450;-35
2022/01/23 09:53:23;;;;;;;23.20;11.53;;;;;;;-1.84;72.67;97160.94;5117145;28;20446;-36
2022/01/23 09:55:58;;;;;;;27.17;14.57;;;;;;;-1.80;72.06;97157.09;5117140;28;20471;-35
2022/01/23 09:58:26;;;;;;;19.00;10.33;;;;;;;-1.77;71.67;97154.16;5116955;28;20979;-36
2022/01/23 10:00:53;;;;;;;16.67;9.23;;;;;;;-1.76;71.69;97158.41;5116141;28;20437;-36
2022/01/23 10:03:21;;;;;;;11.27;6.43;;;;;;;-1.84;71.20;97147.94;5116931;28;20438;-36
2022/01/23 10:05:49;;;;;;;20.33;9.10;;;;;;;-1.82;71.21;97159.00;5116999;28;20812;-35
2022/01/23 10:08:19;;;;;;;11.10;6.33;;;;;;;-1.88;71.24;97149.19;5117187;28;20441;-36
2022/01/23 10:10:51;;;;;;;17.37;6.70;;;;;;;-1.85;71.89;97143.69;5116775;28;20920;-35
2022/01/23 10:13:20;;;;;;;14.87;8.87;;;;;;;-1.85;71.41;97141.06;5116828;28;20430;-35
2022/01/23 10:15:48;;;;;;;20.90;9.70;;;;;;;-2.12;71.69;97115.97;5116771;28;20434;-36
2022/01/23 10:18:16;;;;;;;8.80;5.83;;;;;;;-1.94;71.04;97155.00;5116214;28;20495;-35
2022/01/23 10:20:46;;;;;;;15.77;7.40;;;;;;;-1.97;72.02;97139.69;5116721;28;20448;-36
2022/01/23 10:23:13;;;;;;;8.47;5.33;;;;;;;-1.91;71.82;97133.88;5116618;28;21035;-35
2022/01/23 10:25:47;;;;;;;29.00;12.47;;;;;;;-1.83;72.02;97131.34;5116825;28;20445;-36
2022/01/23 10:28:18;;;;;;;42.77;17.53;;;;;;;-1.77;72.06;97130.72;5116522;28;20479;-35
2022/01/23 10:30:49;;;;;;;19.90;11.47;;;;;;;-1.56;71.39;97132.22;5117451;28;20446;-35
2022/01/23 10:33:18;;;;;;;11.17;6.60;;;;;;;-1.40;71.00;97128.88;5116783;28;20421;-35
2022/01/23 10:36:01;;;;;;;18.67;11.10;;;;;;;-1.19;70.71;97131.16;5116349;28;20442;-36
2022/01/23 10:38:31;;;;;;;17.40;8.13;;;;;;;-0.98;70.69;97131.59;5116496;28;20856;-36
2022/01/23 10:49:52;;;;;;;14.10;5.60;;;;;;;-0.76;67.96;97118.97;5116044;28;20485;-35
2022/01/23 10:52:32;;;;;;;15.07;9.23;;;;;;;-0.69;69.91;97112.16;5115999;28;20449;-35
2022/01/23 10:55:00;;;;;;;12.43;7.50;;;;;;;-0.66;68.47;97119.69;5116355;28;20480;-35
2022/01/23 10:57:40;;;;;;;17.90;7.50;;;;;;;-0.72;68.28;97105.47;5115890;28;20846;-34
2022/01/23 11:00:09;;;;;;;13.87;6.93;;;;;;;-0.94;68.60;97093.81;5115131;28;20449;-35
2022/01/23 11:02:40;;;;;;;25.93;10.47;;;;;;;-1.08;67.82;97099.59;5115825;28;20518;-34
2022/01/23 11:05:10;;;;;;;33.07;13.23;;;;;;;-1.10;69.05;97101.53;5116174;28;20426;-34
2022/01/23 11:07:42;;;;;;;33.67;15.10;;;;;;;-1.07;68.66;97106.47;5116011;28;20593;-35
2022/01/23 11:10:12;;;;;;;24.70;12.90;;;;;;;-1.22;68.36;97076.75;5116065;28;20426;-35
2022/01/23 11:18:12;;;;;;;22.53;10.77;;;;;;;-1.30;68.01;97093.94;5081429;28;20545;-35
2022/01/23 11:20:41;;;;;;;14.23;8.03;;;;;;;-1.43;68.52;97077.13;5115686;28;20487;-35
2022/01/23 11:23:16;;;;;;;9.33;6.57;;;;;;;-1.45;67.91;97093.69;5115500;28;20438;-38
2022/01/23 11:25:45;;;;;;;10.87;6.80;;;;;;;-1.50;68.11;97079.50;5115796;28;20422;-36
2022/01/23 11:28:14;;;;;;;13.43;8.10;;;;;;;-1.54;68.59;97072.97;5115689;28;20456;-35
2022/01/23 11:30:45;;;;;;;24.43;7.30;;;;;;;-1.43;68.44;97090.94;5114705;28;20442;-36
2022/01/23 11:33:14;;;;;;;13.03;5.83;;;;;;;-1.40;68.15;97092.41;5115257;28;20422;-35
2022/01/23 11:35:42;;;;;;;14.30;7.80;;;;;;;-1.58;67.14;97067.25;5115185;28;20506;-35
2022/01/23 11:38:13;;;;;;;20.40;9.80;;;;;;;-1.63;68.81;97042.63;5115030;28;20812;-35
2022/01/23 11:54:36;;;;;;;17.53;8.53;;;;;;;-1.43;70.05;97080.53;5115163;28;20469;-36
2022/01/23 11:57:04;;;;;;;9.20;6.23;;;;;;;-1.49;69.92;97075.94;5114710;28;20933;-35
2022/01/23 11:59:41;;;;;;;23.97;9.07;;;;;;;-1.48;70.62;97083.59;5114663;28;20442;-36
2022/01/23 12:02:36;;;;;;;9.20;7.10;;;;;;;-1.41;71.56;97073.38;5114697;28;20434;-35
2022/01/23 12:05:31;;;;;;;15.13;7.17;;;;;;;-1.42;71.58;97066.53;5114636;28;20458;-35
2022/01/23 12:08:31;;;;;;;7.03;5.93;;;;;;;-1.41;72.10;97068.16;5114985;28;20427;-35
2022/01/23 12:17:40;;;;;;;50.23;20.27;;;;;;;-1.29;71.76;97059.13;5114430;28;20819;-36
2022/01/23 12:20:08;;;;;;;29.13;13.87;;;;;;;-1.16;71.81;97076.09;5114415;28;20438;-35
2022/01/23 12:22:40;;;;;;;31.93;15.60;;;;;;;-1.17;72.19;97071.88;5114561;28;20446;-36
2022/01/23 12:25:27;;;;;;;27.93;12.80;;;;;;;-1.20;72.13;97062.59;5114615;28;20446;-36
2022/01/23 12:28:21;;;;;;;17.60;9.43;;;;;;;-1.18;73.19;97052.81;5114254;28;20441;-36
2022/01/23 12:30:51;;;;;;;15.37;8.83;;;;;;;-1.18;72.37;97062.41;5114505;28;20850;-35
2022/01/23 12:33:41;;;;;;;22.40;10.10;;;;;;;-1.29;73.30;97059.13;5114165;28;20426;-35
2022/01/23 12:36:19;;;;;;;25.93;9.40;;;;;;;-1.16;74.33;97063.91;5097534;28;20524;-35
2022/01/23 12:38:48;;;;;;;32.67;11.33;;;;;;;-1.26;74.74;97066.63;5114092;28;20980;-34
2022/01/23 12:41:24;;;;;;;20.07;9.53;;;;;;;-1.28;75.29;97062.53;5114226;28;20449;-34
2022/01/23 12:43:55;;;;;;;34.57;11.27;;;;;;;-1.40;77.59;97075.00;5114376;28;20422;-35
2022/01/23 12:46:30;;;;;;;19.80;9.10;;;;;;;-1.38;78.05;97073.06;5114038;28;20431;-35
2022/01/23 12:48:59;;;;;;;17.77;9.37;;;;;;;-1.33;79.19;97070.81;5113674;28;20479;-36
2022/01/23 12:51:42;;;;;;;19.70;10.80;;;;;;;-1.25;80.14;97068.28;5114302;28;20422;-35
2022/01/23 12:54:16;;;;;;;18.23;9.50;;;;;;;-1.15;80.27;97065.53;5113884;28;20988;-35
2022/01/23 12:56:44;;;;;;;56.63;25.33;;;;;;;-1.16;80.82;97087.38;5114123;28;20426;-35
2022/01/23 12:59:19;;;;;;;20.43;10.30;;;;;;;-1.15;81.00;97077.75;5114076;28;20899;-35
2022/01/23 13:01:48;;;;;;;20.90;10.10;;;;;;;-1.15;81.04;97077.75;5113804;28;20483;-35
2022/01/23 13:04:16;;;;;;;14.10;9.90;;;;;;;-1.17;81.44;97069.28;5114146;28;20446;-35
2022/01/23 13:06:50;;;;;;;27.03;10.00;;;;;;;-1.12;82.03;97080.03;5113964;28;20438;-35
2022/01/23 13:09:24;;;;;;;19.77;10.57;;;;;;;-1.12;82.18;97072.22;5113778;28;20434;-35
2022/01/23 13:12:04;;;;;;;27.87;13.00;;;;;;;-1.10;81.98;97078.94;5113742;28;20437;-35
2022/01/23 13:14:47;;;;;;;15.10;10.50;;;;;;;-1.10;81.62;97076.31;5114028;28;20509;-35
2022/01/23 13:17:32;;;;;;;24.03;10.50;;;;;;;-1.16;81.69;97070.88;5113663;28;20426;-36
2022/01/23 13:31:08;;;;;;;20.93;9.23;;;;;;;-1.33;80.96;97075.22;5113782;28;20417;-35
2022/01/23 13:33:39;;;;;;;21.23;13.40;;;;;;;-1.34;81.28;97073.56;5113526;28;20430;-35
2022/01/23 13:36:09;;;;;;;23.60;10.53;;;;;;;-1.35;80.47;97072.78;5113398;28;20438;-35
2022/01/23 13:38:38;;;;;;;26.97;12.37;;;;;;;-1.35;80.76;97085.78;5113334;28;20478;-35
2022/01/23 13:41:20;;;;;;;27.77;14.30;;;;;;;-1.34;80.15;97074.38;5113330;28;20917;-35
2022/01/23 13:52:35;;;;;;;45.70;18.03;;;;;;;-1.39;79.79;97071.44;5113510;28;20417;-36
2022/01/23 13:58:11;;;;;;;53.30;21.73;;;;;;;-1.57;80.57;97048.06;5072433;28;20436;-35
2022/01/23 14:00:39;;;;;;;16.03;8.40;;;;;;;-1.41;80.81;97062.16;5117132;28;20434;-37
2022/01/23 14:03:06;;;;;;;77.67;33.60;;;;;;;-1.45;80.67;97062.44;5117063;28;20485;-36
2022/01/23 14:05:35;;;;;;;45.13;21.40;;;;;;;-1.41;80.45;97062.97;5116982;28;20445;-35
2022/01/23 14:08:06;;;;;;;33.67;16.20;;;;;;;-1.39;80.44;97066.22;5116900;28;20491;-35
2022/01/23 14:10:35;;;;;;;48.93;16.43;;;;;;;-1.37;80.38;97069.50;5117117;28;20422;-35
2022/01/23 14:13:07;;;;;;;21.33;9.33;;;;;;;-1.34;80.08;97074.38;5117618;28;20442;-35
2022/01/23 14:15:35;;;;;;;30.93;14.83;;;;;;;-1.33;80.18;97065.63;5117167;28;20491;-35
2022/01/23 14:18:04;;;;;;;27.33;12.07;;;;;;;-1.30;79.96;97067.09;5116673;28;20488;-35
2022/01/23 14:20:33;;;;;;;40.13;13.90;;;;;;;-1.31;79.59;97068.06;5116913;28;20434;-35
2022/01/23 14:23:12;;;;;;;27.27;9.40;;;;;;;-1.34;79.28;97063.16;5116952;28;20446;-34
2022/01/23 14:25:46;;;;;;;39.73;16.73;;;;;;;-1.37;79.35;97066.91;5116582;28;20426;-34
2022/01/23 14:28:16;;;;;;;40.97;14.53;;;;;;;-1.37;79.07;97061.69;5116618;28;20434;-34
2022/01/23 14:30:45;;;;;;;33.43;14.23;;;;;;;-1.40;78.36;97064.56;5116748;28;20449;-36
2022/01/23 14:33:18;;;;;;;33.27;12.27;;;;;;;-1.46;78.11;97066.03;5116626;28;20438;-35
2022/01/23 14:35:47;;;;;;;13.67;7.73;;;;;;;-1.50;78.16;97069.09;5116366;28;20845;-35
2022/01/23 14:38:18;;;;;;;26.27;12.20;;;;;;;-1.58;78.15;97056.84;5116355;28;20489;-35
2022/01/23 14:40:56;;;;;;;36.37;15.93;;;;;;;-1.66;79.15;97075.84;5116666;28;20434;-36
2022/01/23 14:43:31;;;;;;;34.93;15.40;;;;;;;-1.87;79.28;97052.75;5116354;28;20442;-35